Granite, Oregon
Current Conditions -  °F | °C
As of 11:53 AM on Monday 26 Jan 2015 (Local Time) from KBKE Reporting Station
Clear Clear  
Wind Chill: 38°   Ceiling: Unl
Heat Index: 45°   Visibility: 10mi
Dew Point: 35°   Wind: 16mph
Humidity: 68%   Direction: 90°E
Pressure: 30.24"   Gusts: 23mph
Location:  44.7337°N, 118.267°W
Report Text: KBKE 261953Z AUTO 09014G20KT 10SM CLR 07/02 A3024 RMK AO2 SLP256 T00720017 TSNO
Loading
Personal Weather Stations






























Interactive Weather Map New forecast layout! Learn more

10-Day Weather Forecast

Advertisements
Track Severe Weather on mobile